createdAt,value
2022-09-18T00:01:34.355Z,12.41
2022-09-18T00:04:37.469Z,12.38
2022-09-18T00:07:40.347Z,12.36
2022-09-18T00:10:46.644Z,12.34
2022-09-18T00:13:50.612Z,12.33
2022-09-18T00:16:53.548Z,12.31
2022-09-18T00:19:56.420Z,12.29
2022-09-18T00:22:59.308Z,12.29
2022-09-18T00:26:02.692Z,12.29
2022-09-18T00:29:06.107Z,12.29
2022-09-18T00:32:08.990Z,12.27
2022-09-18T00:35:11.882Z,12.26
2022-09-18T00:38:14.757Z,12.25
2022-09-18T00:41:19.026Z,12.24
2022-09-18T00:44:24.645Z,12.23
2022-09-18T00:47:33.150Z,12.23
2022-09-18T00:50:35.952Z,12.22
2022-09-18T00:53:44.450Z,12.21
2022-09-18T00:56:50.114Z,12.20
2022-09-18T00:59:54.695Z,12.18
2022-09-18T01:03:01.926Z,12.17
2022-09-18T01:06:16.834Z,12.16
2022-09-18T01:09:28.563Z,12.14
2022-09-18T01:12:43.593Z,12.12
2022-09-18T01:16:05.020Z,12.10
2022-09-18T01:19:28.561Z,12.07
2022-09-18T01:22:47.669Z,12.06
2022-09-18T01:26:23.363Z,12.04
2022-09-18T01:29:43.623Z,12.01
2022-09-18T01:32:54.014Z,12.00
2022-09-18T01:36:02.758Z,11.99
2022-09-18T01:39:21.254Z,11.97
2022-09-18T01:42:28.512Z,11.95
2022-09-18T01:45:34.893Z,11.94
2022-09-18T01:48:57.023Z,11.93
2022-09-18T01:52:09.416Z,11.92
2022-09-18T01:55:18.133Z,11.90
2022-09-18T01:58:24.969Z,11.89
2022-09-18T02:01:31.237Z,11.87
2022-09-18T02:04:38.734Z,11.85
2022-09-18T02:07:56.813Z,11.83
2022-09-18T02:11:12.499Z,11.81
2022-09-18T02:14:27.690Z,11.78
2022-09-18T02:18:05.726Z,11.78
2022-09-18T02:21:18.491Z,11.77
2022-09-18T02:24:24.684Z,11.76
2022-09-18T02:27:28.567Z,11.77
2022-09-18T02:30:32.843Z,11.74
2022-09-18T02:33:37.205Z,11.74
2022-09-18T02:37:06.271Z,11.74
2022-09-18T02:40:31.176Z,11.73
2022-09-18T02:43:49.829Z,11.72
2022-09-18T02:47:23.825Z,11.70
2022-09-18T02:50:45.007Z,11.67
2022-09-18T02:53:53.116Z,11.65
2022-09-18T02:57:09.506Z,11.62
2022-09-18T03:00:17.073Z,11.60
2022-09-18T03:03:27.117Z,11.59
2022-09-18T03:06:33.427Z,11.58
2022-09-18T03:09:37.347Z,11.57
2022-09-18T03:12:40.235Z,11.56
2022-09-18T03:15:43.917Z,11.55
2022-09-18T03:18:47.429Z,11.53
2022-09-18T03:21:51.295Z,11.52
2022-09-18T03:24:54.561Z,11.51
2022-09-18T03:27:57.631Z,11.50
2022-09-18T03:31:11.889Z,11.48
2022-09-18T03:34:14.903Z,11.45
2022-09-18T03:37:19.998Z,11.44
2022-09-18T03:40:23.268Z,11.42
2022-09-18T03:43:27.353Z,11.41
2022-09-18T03:46:30.567Z,11.40
2022-09-18T03:49:35.844Z,11.39
2022-09-18T03:52:39.585Z,11.38
2022-09-18T03:56:02.748Z,11.36
2022-09-18T03:59:24.346Z,11.36
2022-09-18T04:02:49.018Z,11.35
2022-09-18T04:06:12.326Z,11.33
2022-09-18T04:09:34.465Z,11.31
2022-09-18T04:12:37.406Z,11.30
2022-09-18T04:16:02.327Z,11.31
2022-09-18T04:19:05.229Z,11.31
2022-09-18T04:22:08.226Z,11.32
2022-09-18T04:25:13.341Z,11.32
2022-09-18T04:28:16.368Z,11.34
2022-09-18T04:31:21.103Z,11.34
2022-09-18T04:34:24.230Z,11.34
2022-09-18T04:37:30.064Z,11.35
2022-09-18T04:40:33.653Z,11.36
2022-09-18T04:43:36.649Z,11.36
2022-09-18T04:46:41.316Z,11.36
2022-09-18T04:49:44.247Z,11.36
2022-09-18T04:52:47.205Z,11.35
2022-09-18T04:55:50.215Z,11.35
2022-09-18T04:58:53.983Z,11.36
2022-09-18T05:01:58.847Z,11.35
2022-09-18T05:05:02.548Z,11.35
2022-09-18T05:08:09.804Z,11.37
2022-09-18T05:11:13.093Z,11.38
2022-09-18T05:14:16.130Z,11.37
2022-09-18T05:17:21.945Z,11.40
2022-09-18T05:20:35.768Z,11.40
2022-09-18T05:23:42.583Z,11.41
2022-09-18T05:26:46.660Z,11.41
2022-09-18T05:29:50.633Z,11.42
2022-09-18T05:32:59.202Z,11.42
2022-09-18T05:36:04.896Z,11.42
2022-09-18T05:39:07.852Z,11.43
2022-09-18T05:42:11.058Z,11.44
2022-09-18T05:45:15.154Z,11.45
2022-09-18T05:48:18.196Z,11.47
2022-09-18T05:51:21.155Z,11.49
2022-09-18T05:54:24.136Z,11.51
2022-09-18T05:57:27.573Z,11.52
2022-09-18T06:00:32.849Z,11.55
2022-09-18T06:03:39.729Z,11.55
2022-09-18T06:06:43.148Z,11.56
2022-09-18T06:09:46.303Z,11.58
2022-09-18T06:12:49.506Z,11.59
2022-09-18T06:15:52.547Z,11.63
2022-09-18T06:19:03.473Z,11.67
2022-09-18T06:22:06.502Z,11.70
2022-09-18T06:25:10.442Z,11.71
2022-09-18T06:28:13.860Z,11.73
2022-09-18T06:31:16.969Z,11.74
2022-09-18T06:34:29.366Z,11.75
2022-09-18T06:37:35.839Z,11.76
2022-09-18T06:40:54.621Z,11.75
2022-09-18T06:44:04.318Z,11.77
2022-09-18T06:47:18.659Z,11.78
2022-09-18T06:50:23.249Z,11.81
2022-09-18T06:53:26.752Z,11.83
2022-09-18T06:56:33.040Z,11.84
2022-09-18T06:59:37.831Z,11.85
2022-09-18T07:02:41.980Z,11.85
2022-09-18T07:06:17.031Z,11.87
2022-09-18T07:09:22.610Z,11.89
2022-09-18T07:12:29.406Z,11.92
2022-09-18T07:15:32.394Z,11.96
2022-09-18T07:18:35.395Z,12.01
2022-09-18T07:21:40.177Z,12.04
2022-09-18T07:24:43.466Z,12.04
2022-09-18T07:27:46.385Z,12.06
2022-09-18T07:30:50.068Z,12.07
2022-09-18T07:33:55.084Z,12.09
2022-09-18T07:37:01.420Z,12.13
2022-09-18T07:40:05.652Z,12.17
2022-09-18T07:43:43.924Z,12.19
2022-09-18T07:46:47.923Z,12.20
2022-09-18T07:49:51.241Z,12.21
2022-09-18T07:52:59.551Z,12.21
2022-09-18T07:56:12.103Z,12.22
2022-09-18T07:59:16.819Z,12.28
2022-09-18T08:02:20.338Z,12.29
2022-09-18T08:05:23.544Z,12.28
2022-09-18T08:08:36.182Z,12.28
2022-09-18T08:11:59.497Z,12.30
2022-09-18T08:15:08.890Z,12.32
2022-09-18T08:18:22.060Z,12.33
2022-09-18T08:21:36.250Z,12.33
2022-09-18T08:24:44.312Z,12.37
2022-09-18T08:27:48.010Z,12.42
2022-09-18T08:30:58.059Z,12.47
2022-09-18T08:34:02.079Z,12.49
2022-09-18T08:37:06.788Z,12.47
2022-09-18T08:40:55.402Z,12.45
2022-09-18T08:44:10.148Z,12.44
2022-09-18T08:47:22.643Z,12.41
2022-09-18T08:50:40.856Z,12.42
2022-09-18T08:53:54.068Z,12.46
2022-09-18T08:57:19.781Z,12.56
2022-09-18T09:00:48.982Z,12.58
2022-09-18T09:04:24.657Z,12.60
2022-09-18T09:07:29.456Z,12.61
2022-09-18T09:10:48.169Z,12.62
2022-09-18T09:14:34.323Z,12.66
2022-09-18T09:18:15.477Z,12.70
2022-09-18T09:21:23.195Z,12.78
2022-09-18T09:24:32.126Z,12.85
2022-09-18T09:27:52.723Z,12.87
2022-09-18T09:31:28.447Z,12.91
2022-09-18T09:34:57.405Z,12.95
2022-09-18T09:38:30.303Z,12.96
2022-09-18T09:41:49.632Z,12.98
2022-09-18T09:45:02.679Z,12.99
2022-09-18T09:48:26.556Z,12.95
2022-09-18T09:51:49.204Z,12.87
2022-09-18T09:54:57.231Z,12.79
2022-09-18T09:58:30.776Z,12.69
2022-09-18T10:01:58.157Z,12.59
2022-09-18T10:05:11.168Z,12.52
2022-09-18T10:08:43.060Z,12.45
2022-09-18T10:12:10.325Z,12.38
2022-09-18T10:15:19.633Z,12.32
2022-09-18T10:18:27.866Z,12.31
2022-09-18T10:21:36.260Z,12.31
2022-09-18T10:24:53.868Z,12.32
2022-09-18T10:27:59.192Z,12.38
2022-09-18T10:31:10.714Z,12.45
2022-09-18T10:34:49.918Z,12.47
2022-09-18T10:37:56.621Z,12.50
2022-09-18T10:41:29.314Z,12.50
2022-09-18T10:44:39.823Z,12.58
2022-09-18T10:47:50.173Z,12.81
2022-09-18T10:50:54.288Z,12.91
2022-09-18T10:54:16.167Z,13.11
2022-09-18T10:58:02.154Z,13.54
2022-09-18T11:01:08.345Z,13.96
2022-09-18T11:04:17.642Z,14.20
2022-09-18T11:07:25.844Z,14.32
2022-09-18T11:10:34.344Z,14.32
2022-09-18T11:14:05.991Z,14.41
2022-09-18T11:17:24.531Z,14.32
2022-09-18T11:20:30.452Z,14.23
2022-09-18T11:23:46.171Z,14.16
2022-09-18T11:26:55.292Z,14.13
2022-09-18T11:30:14.955Z,14.09
2022-09-18T11:33:42.248Z,14.10
2022-09-18T11:36:50.403Z,14.14
2022-09-18T11:40:01.172Z,14.10
2022-09-18T11:43:22.591Z,14.24
2022-09-18T11:46:31.949Z,14.41
2022-09-18T11:49:46.168Z,14.46
2022-09-18T11:53:02.270Z,14.42
2022-09-18T11:56:08.451Z,14.32
2022-09-18T11:59:31.718Z,14.22
2022-09-18T12:02:58.055Z,14.08
2022-09-18T12:06:10.921Z,13.91
2022-09-18T12:09:21.741Z,13.75
2022-09-18T12:12:38.348Z,13.61
2022-09-18T12:15:49.623Z,13.45
2022-09-18T12:18:59.747Z,13.33
2022-09-18T12:22:20.344Z,13.23
2022-09-18T12:25:44.480Z,13.15
2022-09-18T12:29:17.017Z,13.10
2022-09-18T12:32:43.104Z,13.06
2022-09-18T12:36:04.918Z,13.01
2022-09-18T12:39:22.959Z,12.98
2022-09-18T12:42:38.880Z,12.96
2022-09-18T12:46:03.613Z,12.95
2022-09-18T12:49:12.067Z,12.92
2022-09-18T12:53:10.336Z,12.86
2022-09-18T12:56:25.649Z,12.77
2022-09-18T12:59:50.323Z,12.71
2022-09-18T13:03:29.230Z,12.65
2022-09-18T13:06:45.810Z,12.58
2022-09-18T13:10:02.141Z,12.53
2022-09-18T13:13:26.616Z,12.48
2022-09-18T13:16:50.029Z,12.42
2022-09-18T13:19:59.785Z,12.38
2022-09-18T13:23:03.195Z,12.37
2022-09-18T13:26:14.845Z,12.31
2022-09-18T13:29:51.590Z,12.26
2022-09-18T13:32:57.194Z,12.24
2022-09-18T13:36:00.314Z,12.19
2022-09-18T13:39:27.064Z,12.15
2022-09-18T13:42:33.665Z,12.13
2022-09-18T13:45:38.848Z,12.11
2022-09-18T13:48:45.840Z,12.11
2022-09-18T13:51:49.478Z,12.15
2022-09-18T13:55:11.233Z,12.18
2022-09-18T13:58:46.254Z,12.21
2022-09-18T14:01:55.224Z,12.23
2022-09-18T14:05:04.480Z,12.27
2022-09-18T14:08:21.465Z,12.33
2022-09-18T14:11:25.243Z,12.39
2022-09-18T14:14:33.973Z,12.43
2022-09-18T14:17:38.790Z,12.48
2022-09-18T14:20:52.426Z,12.51
2022-09-18T14:24:23.398Z,12.52
2022-09-18T14:27:38.880Z,12.53
2022-09-18T14:30:41.742Z,12.55
2022-09-18T14:33:45.791Z,12.55
2022-09-18T14:36:55.262Z,12.53
2022-09-18T14:39:59.087Z,12.50
2022-09-18T14:43:15.113Z,12.47
2022-09-18T14:46:20.403Z,12.47
2022-09-18T14:49:28.106Z,12.45
2022-09-18T14:52:41.122Z,12.45
2022-09-18T14:55:49.697Z,12.44
2022-09-18T14:58:52.942Z,12.43
2022-09-18T15:02:20.563Z,12.44
2022-09-18T15:05:23.641Z,12.44
2022-09-18T15:08:27.054Z,12.45
2022-09-18T15:11:42.009Z,12.44
2022-09-18T15:14:53.848Z,12.44
2022-09-18T15:17:58.351Z,12.45
2022-09-18T15:21:03.941Z,12.46
2022-09-18T15:24:16.602Z,12.46
2022-09-18T15:27:21.606Z,12.46
2022-09-18T15:30:25.777Z,12.46
2022-09-18T15:33:29.381Z,12.46
2022-09-18T15:36:36.272Z,12.46
2022-09-18T15:39:42.607Z,12.45
2022-09-18T15:43:07.107Z,12.48
2022-09-18T15:46:13.150Z,12.48
2022-09-18T15:49:30.800Z,12.49
2022-09-18T15:52:41.566Z,12.51
2022-09-18T15:55:56.516Z,12.51
2022-09-18T15:59:03.593Z,12.51
2022-09-18T16:02:29.402Z,12.51
2022-09-18T16:05:35.587Z,12.49
2022-09-18T16:08:39.012Z,12.47
2022-09-18T16:11:46.284Z,12.44
2022-09-18T16:15:16.495Z,12.42
2022-09-18T16:18:25.800Z,12.40
2022-09-18T16:21:30.692Z,12.36
2022-09-18T16:24:37.966Z,12.34
2022-09-18T16:27:46.879Z,12.32
2022-09-18T16:30:49.965Z,12.30
2022-09-18T16:33:57.210Z,12.27
2022-09-18T16:37:00.375Z,12.25
2022-09-18T16:40:05.372Z,12.24
2022-09-18T16:43:08.421Z,12.21
2022-09-18T16:46:14.562Z,12.20
2022-09-18T16:49:20.626Z,12.19
2022-09-18T16:52:23.727Z,12.15
2022-09-18T16:55:27.058Z,12.14
2022-09-18T16:58:30.306Z,12.12
2022-09-18T17:02:00.101Z,12.10
2022-09-18T17:05:03.382Z,12.07
2022-09-18T17:08:06.696Z,12.04
2022-09-18T17:11:09.924Z,12.02
2022-09-18T17:14:12.994Z,11.97
2022-09-18T17:17:16.340Z,11.94
2022-09-18T17:20:19.543Z,11.93
2022-09-18T17:23:22.709Z,11.91
2022-09-18T17:26:28.766Z,11.91
2022-09-18T17:29:32.404Z,11.89
2022-09-18T17:32:36.753Z,11.88
2022-09-18T17:35:39.718Z,11.87
2022-09-18T17:38:45.274Z,11.86
2022-09-18T17:41:48.505Z,11.85
2022-09-18T17:44:52.590Z,11.84
2022-09-18T17:47:57.598Z,11.84
2022-09-18T17:51:04.263Z,11.83
2022-09-18T17:54:08.489Z,11.83
2022-09-18T17:57:12.144Z,11.81
2022-09-18T18:00:20.067Z,11.81
2022-09-18T18:03:25.986Z,11.81
2022-09-18T18:06:31.319Z,11.81
2022-09-18T18:09:39.192Z,11.79
2022-09-18T18:12:43.779Z,11.79
2022-09-18T18:15:49.850Z,11.77
2022-09-18T18:19:04.736Z,11.75
2022-09-18T18:22:08.280Z,11.72
2022-09-18T18:25:13.253Z,11.70
2022-09-18T18:28:16.925Z,11.70
2022-09-18T18:31:19.968Z,11.67
2022-09-18T18:34:25.751Z,11.67
2022-09-18T18:37:31.936Z,11.66
2022-09-18T18:40:40.081Z,11.64
2022-09-18T18:43:45.433Z,11.62
2022-09-18T18:46:52.040Z,11.61
2022-09-18T18:49:57.499Z,11.61
2022-09-18T18:53:01.345Z,11.60
2022-09-18T18:56:09.305Z,11.59
2022-09-18T18:59:21.610Z,11.57
2022-09-18T19:02:27.849Z,11.56
2022-09-18T19:05:35.438Z,11.54
2022-09-18T19:08:39.233Z,11.53
2022-09-18T19:11:49.945Z,11.52
2022-09-18T19:14:56.687Z,11.51
2022-09-18T19:18:02.768Z,11.48
2022-09-18T19:21:08.121Z,11.48
2022-09-18T19:24:13.601Z,11.47
2022-09-18T19:27:19.599Z,11.48
2022-09-18T19:30:24.628Z,11.46
2022-09-18T19:33:34.701Z,11.46
2022-09-18T19:36:38.658Z,11.45
2022-09-18T19:39:47.445Z,11.45
2022-09-18T19:42:57.748Z,11.44
2022-09-18T19:46:02.732Z,11.42
2022-09-18T19:49:06.413Z,11.41
2022-09-18T19:52:21.717Z,11.38
2022-09-18T19:55:25.824Z,11.35
2022-09-18T19:58:28.808Z,11.34
2022-09-18T20:01:31.701Z,11.34
2022-09-18T20:04:38.079Z,11.31
2022-09-18T20:07:46.935Z,11.30
2022-09-18T20:10:50.397Z,11.29
2022-09-18T20:13:53.720Z,11.27
2022-09-18T20:16:56.777Z,11.26
2022-09-18T20:19:59.749Z,11.26
2022-09-18T20:23:03.284Z,11.24
2022-09-18T20:26:15.744Z,11.23
2022-09-18T20:29:18.524Z,11.22
2022-09-18T20:32:21.617Z,11.19
2022-09-18T20:35:24.664Z,11.17
2022-09-18T20:38:37.113Z,11.17
2022-09-18T20:41:40.708Z,11.15
2022-09-18T20:44:43.647Z,11.15
2022-09-18T20:47:47.298Z,11.14
2022-09-18T20:50:50.149Z,11.15
2022-09-18T20:53:57.292Z,11.14
2022-09-18T20:57:01.354Z,11.14
2022-09-18T21:00:06.652Z,11.14
2022-09-18T21:03:09.536Z,11.13
2022-09-18T21:06:22.451Z,11.14
2022-09-18T21:09:28.221Z,11.14
2022-09-18T21:12:35.199Z,11.14
2022-09-18T21:15:38.021Z,11.15
2022-09-18T21:18:41.589Z,11.16
2022-09-18T21:21:44.474Z,11.16
2022-09-18T21:24:47.308Z,11.17
2022-09-18T21:27:53.964Z,11.18
2022-09-18T21:31:11.799Z,11.18
2022-09-18T21:34:17.493Z,11.19
2022-09-18T21:37:20.338Z,11.18
2022-09-18T21:40:24.195Z,11.19
2022-09-18T21:43:27.221Z,11.20
2022-09-18T21:46:30.268Z,11.18
2022-09-18T21:49:33.797Z,11.18
2022-09-18T21:52:36.622Z,11.17
2022-09-18T21:55:39.657Z,11.17
2022-09-18T21:58:45.112Z,11.18
2022-09-18T22:01:49.112Z,11.18
2022-09-18T22:04:55.067Z,11.17
2022-09-18T22:07:57.930Z,11.16
2022-09-18T22:11:02.964Z,11.17
2022-09-18T22:14:09.973Z,11.16
2022-09-18T22:17:12.814Z,11.16
2022-09-18T22:20:16.504Z,11.16
2022-09-18T22:23:19.409Z,11.16
2022-09-18T22:26:24.949Z,11.15
2022-09-18T22:29:31.241Z,11.16
2022-09-18T22:32:34.140Z,11.17
2022-09-18T22:35:37.016Z,11.17
2022-09-18T22:38:39.860Z,11.17
2022-09-18T22:41:43.922Z,11.18
2022-09-18T22:44:46.794Z,11.17
2022-09-18T22:47:49.651Z,11.17
2022-09-18T22:50:52.495Z,11.17
2022-09-18T22:53:58.975Z,11.16
2022-09-18T22:57:01.896Z,11.16
2022-09-18T23:00:05.568Z,11.17
2022-09-18T23:03:08.465Z,11.15
2022-09-18T23:06:12.437Z,11.14
2022-09-18T23:09:16.991Z,11.13
2022-09-18T23:12:19.829Z,11.11
2022-09-18T23:15:22.669Z,11.10
2022-09-18T23:18:25.509Z,11.09
2022-09-18T23:21:32.119Z,11.08
2022-09-18T23:24:35.056Z,11.07
2022-09-18T23:27:37.893Z,11.07
2022-09-18T23:30:40.758Z,11.05
2022-09-18T23:33:48.670Z,11.04
2022-09-18T23:36:54.271Z,11.02
2022-09-18T23:39:57.133Z,11.02
2022-09-18T23:42:59.983Z,11.00
2022-09-18T23:46:05.070Z,10.99
2022-09-18T23:49:09.410Z,10.98
2022-09-18T23:52:12.389Z,10.96
2022-09-18T23:55:15.323Z,10.96
2022-09-18T23:58:18.836Z,10.96
